sensor_id;sensor_type;location;lat;lon;timestamp;temperature;humidity
30893;DHT22;17595;50.884;4.346;2024-03-08T00:01:53;8.30;99.90
30893;DHT22;17595;50.884;4.346;2024-03-08T00:04:19;8.20;99.90
30893;DHT22;17595;50.884;4.346;2024-03-08T00:06:44;8.40;99.90
30893;DHT22;17595;50.884;4.346;2024-03-08T00:09:12;8.30;99.90
30893;DHT22;17595;50.884;4.346;2024-03-08T00:11:37;8.30;99.90
30893;DHT22;17595;50.884;4.346;2024-03-08T00:14:03;8.20;99.90
30893;DHT22;17595;50.884;4.346;2024-03-08T00:16:32;8.20;99.90
30893;DHT22;17595;50.884;4.346;2024-03-08T00:18:58;8.30;99.90
30893;DHT22;17595;50.884;4.346;2024-03-08T00:21:23;8.30;99.90
30893;DHT22;17595;50.884;4.346;2024-03-08T00:23:49;8.30;99.90
30893;DHT22;17595;50.884;4.346;2024-03-08T00:26:15;8.30;99.90
30893;DHT22;17595;50.884;4.346;2024-03-08T00:28:41;8.10;99.90
30893;DHT22;17595;50.884;4.346;2024-03-08T00:31:06;8.10;99.90
30893;DHT22;17595;50.884;4.346;2024-03-08T00:33:32;8.00;99.90
30893;DHT22;17595;50.884;4.346;2024-03-08T00:35:58;8.00;99.90
30893;DHT22;17595;50.884;4.346;2024-03-08T00:38:24;8.00;99.90
30893;DHT22;17595;50.884;4.346;2024-03-08T00:40:49;8.10;99.90
30893;DHT22;17595;50.884;4.346;2024-03-08T00:43:15;8.10;99.90
30893;DHT22;17595;50.884;4.346;2024-03-08T00:45:41;8.00;99.90
30893;DHT22;17595;50.884;4.346;2024-03-08T00:48:09;8.00;99.90
30893;DHT22;17595;50.884;4.346;2024-03-08T00:50:36;8.00;99.90
30893;DHT22;17595;50.884;4.346;2024-03-08T00:53:02;8.00;99.90
30893;DHT22;17595;50.884;4.346;2024-03-08T00:55:27;8.00;99.90
30893;DHT22;17595;50.884;4.346;2024-03-08T00:57:55;8.00;99.90
30893;DHT22;17595;50.884;4.346;2024-03-08T01:00:20;8.00;99.90
30893;DHT22;17595;50.884;4.346;2024-03-08T01:02:47;8.00;99.90
30893;DHT22;17595;50.884;4.346;2024-03-08T01:05:13;8.10;99.90
30893;DHT22;17595;50.884;4.346;2024-03-08T01:07:39;8.00;99.90
30893;DHT22;17595;50.884;4.346;2024-03-08T01:10:05;8.10;99.90
30893;DHT22;17595;50.884;4.346;2024-03-08T01:12:39;8.00;99.90
30893;DHT22;17595;50.884;4.346;2024-03-08T01:15:05;8.10;99.90
30893;DHT22;17595;50.884;4.346;2024-03-08T01:17:31;8.00;99.90
30893;DHT22;17595;50.884;4.346;2024-03-08T01:19:56;8.00;99.90
30893;DHT22;17595;50.884;4.346;2024-03-08T01:22:22;7.90;99.90
30893;DHT22;17595;50.884;4.346;2024-03-08T01:24:48;7.90;99.90
30893;DHT22;17595;50.884;4.346;2024-03-08T01:27:14;7.80;99.90
30893;DHT22;17595;50.884;4.346;2024-03-08T01:29:40;7.80;99.90
30893;DHT22;17595;50.884;4.346;2024-03-08T01:32:05;7.80;99.90
30893;DHT22;17595;50.884;4.346;2024-03-08T01:34:31;7.80;99.90
30893;DHT22;17595;50.884;4.346;2024-03-08T01:36:58;7.90;99.90
30893;DHT22;17595;50.884;4.346;2024-03-08T01:39:25;7.80;99.90
30893;DHT22;17595;50.884;4.346;2024-03-08T01:41:50;7.80;99.90
30893;DHT22;17595;50.884;4.346;2024-03-08T01:44:16;7.70;99.90
30893;DHT22;17595;50.884;4.346;2024-03-08T01:46:46;7.80;99.90
30893;DHT22;17595;50.884;4.346;2024-03-08T01:49:13;7.80;99.90
30893;DHT22;17595;50.884;4.346;2024-03-08T01:51:40;7.80;99.90
30893;DHT22;17595;50.884;4.346;2024-03-08T01:54:07;7.70;99.90
30893;DHT22;17595;50.884;4.346;2024-03-08T01:56:35;7.70;99.90
30893;DHT22;17595;50.884;4.346;2024-03-08T01:59:01;7.70;99.90
30893;DHT22;17595;50.884;4.346;2024-03-08T02:01:28;7.70;99.90
30893;DHT22;17595;50.884;4.346;2024-03-08T02:03:54;7.70;99.90
30893;DHT22;17595;50.884;4.346;2024-03-08T02:06:20;7.80;99.90
30893;DHT22;17595;50.884;4.346;2024-03-08T02:08:46;7.80;99.90
30893;DHT22;17595;50.884;4.346;2024-03-08T02:11:12;7.80;99.90
30893;DHT22;17595;50.884;4.346;2024-03-08T02:13:38;7.70;99.90
30893;DHT22;17595;50.884;4.346;2024-03-08T02:16:05;7.70;99.90
30893;DHT22;17595;50.884;4.346;2024-03-08T02:18:33;7.70;99.90
30893;DHT22;17595;50.884;4.346;2024-03-08T02:21:02;7.60;99.90
30893;DHT22;17595;50.884;4.346;2024-03-08T02:23:28;7.60;99.90
30893;DHT22;17595;50.884;4.346;2024-03-08T02:25:56;7.60;99.90
30893;DHT22;17595;50.884;4.346;2024-03-08T02:28:22;7.60;99.90
30893;DHT22;17595;50.884;4.346;2024-03-08T02:30:52;7.60;99.90
30893;DHT22;17595;50.884;4.346;2024-03-08T02:33:21;7.60;99.90
30893;DHT22;17595;50.884;4.346;2024-03-08T02:35:48;7.60;99.90
30893;DHT22;17595;50.884;4.346;2024-03-08T02:38:21;7.60;99.90
30893;DHT22;17595;50.884;4.346;2024-03-08T02:40:49;7.60;99.90
30893;DHT22;17595;50.884;4.346;2024-03-08T02:43:16;7.50;99.90
30893;DHT22;17595;50.884;4.346;2024-03-08T02:45:43;7.50;99.90
30893;DHT22;17595;50.884;4.346;2024-03-08T02:48:09;7.50;99.90
30893;DHT22;17595;50.884;4.346;2024-03-08T02:50:36;7.50;99.90
30893;DHT22;17595;50.884;4.346;2024-03-08T02:53:02;7.40;99.90
30893;DHT22;17595;50.884;4.346;2024-03-08T02:55:28;7.40;99.90
30893;DHT22;17595;50.884;4.346;2024-03-08T02:57:55;7.40;99.90
30893;DHT22;17595;50.884;4.346;2024-03-08T03:00:21;7.40;99.90
30893;DHT22;17595;50.884;4.346;2024-03-08T03:02:50;7.40;99.90
30893;DHT22;17595;50.884;4.346;2024-03-08T03:05:23;7.40;99.90
30893;DHT22;17595;50.884;4.346;2024-03-08T03:07:49;7.50;99.90
30893;DHT22;17595;50.884;4.346;2024-03-08T03:10:16;7.40;99.90
30893;DHT22;17595;50.884;4.346;2024-03-08T03:12:43;7.40;99.90
30893;DHT22;17595;50.884;4.346;2024-03-08T03:15:10;7.30;99.90
30893;DHT22;17595;50.884;4.346;2024-03-08T03:17:35;7.30;99.90
30893;DHT22;17595;50.884;4.346;2024-03-08T03:20:01;7.30;99.90
30893;DHT22;17595;50.884;4.346;2024-03-08T03:22:36;7.20;99.90
30893;DHT22;17595;50.884;4.346;2024-03-08T03:25:03;7.20;99.90
30893;DHT22;17595;50.884;4.346;2024-03-08T03:27:30;7.20;99.90
30893;DHT22;17595;50.884;4.346;2024-03-08T03:29:56;7.20;99.90
30893;DHT22;17595;50.884;4.346;2024-03-08T03:32:23;7.20;99.90
30893;DHT22;17595;50.884;4.346;2024-03-08T03:34:49;7.20;99.90
30893;DHT22;17595;50.884;4.346;2024-03-08T03:37:19;7.10;99.90
30893;DHT22;17595;50.884;4.346;2024-03-08T03:39:45;7.10;99.90
30893;DHT22;17595;50.884;4.346;2024-03-08T03:42:17;7.10;99.90
30893;DHT22;17595;50.884;4.346;2024-03-08T03:44:49;7.10;99.90
30893;DHT22;17595;50.884;4.346;2024-03-08T03:47:15;7.10;99.90
30893;DHT22;17595;50.884;4.346;2024-03-08T03:49:42;7.10;99.90
30893;DHT22;17595;50.884;4.346;2024-03-08T03:52:08;7.20;99.90
30893;DHT22;17595;50.884;4.346;2024-03-08T03:54:34;7.10;99.90
30893;DHT22;17595;50.884;4.346;2024-03-08T03:57:00;7.10;99.90
30893;DHT22;17595;50.884;4.346;2024-03-08T03:59:26;7.10;99.90
30893;DHT22;17595;50.884;4.346;2024-03-08T04:01:53;7.10;99.90
30893;DHT22;17595;50.884;4.346;2024-03-08T04:04:20;7.10;99.90
30893;DHT22;17595;50.884;4.346;2024-03-08T04:06:46;7.10;99.90
30893;DHT22;17595;50.884;4.346;2024-03-08T04:09:11;7.10;99.90
30893;DHT22;17595;50.884;4.346;2024-03-08T04:11:39;7.00;99.90
30893;DHT22;17595;50.884;4.346;2024-03-08T04:14:05;7.00;99.90
30893;DHT22;17595;50.884;4.346;2024-03-08T04:16:31;7.00;99.90
30893;DHT22;17595;50.884;4.346;2024-03-08T04:18:59;7.10;99.90
30893;DHT22;17595;50.884;4.346;2024-03-08T04:21:30;7.00;99.90
30893;DHT22;17595;50.884;4.346;2024-03-08T04:23:55;7.00;99.90
30893;DHT22;17595;50.884;4.346;2024-03-08T04:26:22;6.90;99.90
30893;DHT22;17595;50.884;4.346;2024-03-08T04:28:47;6.90;99.90
30893;DHT22;17595;50.884;4.346;2024-03-08T04:31:13;6.90;99.90
30893;DHT22;17595;50.884;4.346;2024-03-08T04:33:38;6.90;99.90
30893;DHT22;17595;50.884;4.346;2024-03-08T04:36:04;6.90;99.90
30893;DHT22;17595;50.884;4.346;2024-03-08T04:38:31;7.00;99.90
30893;DHT22;17595;50.884;4.346;2024-03-08T04:40:57;6.90;99.90
30893;DHT22;17595;50.884;4.346;2024-03-08T04:43:23;6.90;99.90
30893;DHT22;17595;50.884;4.346;2024-03-08T04:45:52;6.90;99.90
30893;DHT22;17595;50.884;4.346;2024-03-08T04:48:19;6.90;99.90
30893;DHT22;17595;50.884;4.346;2024-03-08T04:50:45;6.90;99.90
30893;DHT22;17595;50.884;4.346;2024-03-08T04:53:11;6.80;99.90
30893;DHT22;17595;50.884;4.346;2024-03-08T04:55:37;6.70;99.90
30893;DHT22;17595;50.884;4.346;2024-03-08T04:58:03;6.70;99.90
30893;DHT22;17595;50.884;4.346;2024-03-08T05:00:31;6.70;99.90
30893;DHT22;17595;50.884;4.346;2024-03-08T05:02:57;6.70;99.90
30893;DHT22;17595;50.884;4.346;2024-03-08T05:05:23;6.70;99.90
30893;DHT22;17595;50.884;4.346;2024-03-08T05:07:50;6.60;99.90
30893;DHT22;17595;50.884;4.346;2024-03-08T05:10:16;6.60;99.90
30893;DHT22;17595;50.884;4.346;2024-03-08T05:12:43;6.70;99.90
30893;DHT22;17595;50.884;4.346;2024-03-08T05:15:09;6.70;99.90
30893;DHT22;17595;50.884;4.346;2024-03-08T05:17:35;6.70;99.90
30893;DHT22;17595;50.884;4.346;2024-03-08T05:20:02;6.70;99.90
30893;DHT22;17595;50.884;4.346;2024-03-08T05:22:27;6.70;99.90
30893;DHT22;17595;50.884;4.346;2024-03-08T05:24:53;6.70;99.90
30893;DHT22;17595;50.884;4.346;2024-03-08T05:27:19;6.70;99.90
30893;DHT22;17595;50.884;4.346;2024-03-08T05:29:44;6.70;99.90
30893;DHT22;17595;50.884;4.346;2024-03-08T05:32:11;6.70;99.90
30893;DHT22;17595;50.884;4.346;2024-03-08T05:34:37;6.70;99.90
30893;DHT22;17595;50.884;4.346;2024-03-08T05:37:04;6.70;99.90
30893;DHT22;17595;50.884;4.346;2024-03-08T05:39:29;6.70;99.90
30893;DHT22;17595;50.884;4.346;2024-03-08T05:41:55;6.60;99.90
30893;DHT22;17595;50.884;4.346;2024-03-08T05:44:21;6.60;99.90
30893;DHT22;17595;50.884;4.346;2024-03-08T05:46:47;6.60;99.90
30893;DHT22;17595;50.884;4.346;2024-03-08T05:49:13;6.60;99.90
30893;DHT22;17595;50.884;4.346;2024-03-08T05:51:40;6.60;99.90
30893;DHT22;17595;50.884;4.346;2024-03-08T05:54:07;6.60;99.90
30893;DHT22;17595;50.884;4.346;2024-03-08T05:56:36;6.60;99.90
30893;DHT22;17595;50.884;4.346;2024-03-08T05:59:02;6.60;99.90
30893;DHT22;17595;50.884;4.346;2024-03-08T06:01:28;6.60;99.90
30893;DHT22;17595;50.884;4.346;2024-03-08T06:03:55;6.60;99.90
30893;DHT22;17595;50.884;4.346;2024-03-08T06:06:22;6.60;99.90
30893;DHT22;17595;50.884;4.346;2024-03-08T06:08:48;6.70;99.90
30893;DHT22;17595;50.884;4.346;2024-03-08T06:11:20;6.60;99.90
30893;DHT22;17595;50.884;4.346;2024-03-08T06:13:46;6.60;99.90
30893;DHT22;17595;50.884;4.346;2024-03-08T06:16:12;6.60;99.90
30893;DHT22;17595;50.884;4.346;2024-03-08T06:18:38;6.60;99.90
30893;DHT22;17595;50.884;4.346;2024-03-08T06:21:05;6.60;99.90
30893;DHT22;17595;50.884;4.346;2024-03-08T06:23:35;6.60;99.90
30893;DHT22;17595;50.884;4.346;2024-03-08T06:26:04;6.60;99.90
30893;DHT22;17595;50.884;4.346;2024-03-08T06:28:30;6.60;99.90
30893;DHT22;17595;50.884;4.346;2024-03-08T06:30:58;6.50;99.90
30893;DHT22;17595;50.884;4.346;2024-03-08T06:33:24;6.50;99.90
30893;DHT22;17595;50.884;4.346;2024-03-08T06:35:52;6.50;99.90
30893;DHT22;17595;50.884;4.346;2024-03-08T06:38:18;6.50;99.90
30893;DHT22;17595;50.884;4.346;2024-03-08T06:40:44;6.60;99.90
30893;DHT22;17595;50.884;4.346;2024-03-08T06:43:13;6.50;99.90
30893;DHT22;17595;50.884;4.346;2024-03-08T06:45:42;6.50;99.90
30893;DHT22;17595;50.884;4.346;2024-03-08T06:48:15;6.50;99.90
30893;DHT22;17595;50.884;4.346;2024-03-08T06:50:45;6.50;99.90
30893;DHT22;17595;50.884;4.346;2024-03-08T06:53:15;6.50;99.90
30893;DHT22;17595;50.884;4.346;2024-03-08T06:55:44;6.60;99.90
30893;DHT22;17595;50.884;4.346;2024-03-08T06:58:10;6.50;99.90
30893;DHT22;17595;50.884;4.346;2024-03-08T07:00:36;6.50;99.90
30893;DHT22;17595;50.884;4.346;2024-03-08T07:03:02;6.60;99.90
30893;DHT22;17595;50.884;4.346;2024-03-08T07:05:29;6.70;99.90
30893;DHT22;17595;50.884;4.346;2024-03-08T07:07:55;6.70;99.90
30893;DHT22;17595;50.884;4.346;2024-03-08T07:10:23;6.70;99.90
30893;DHT22;17595;50.884;4.346;2024-03-08T07:12:52;6.70;99.90
30893;DHT22;17595;50.884;4.346;2024-03-08T07:15:19;6.70;99.90
30893;DHT22;17595;50.884;4.346;2024-03-08T07:17:49;6.80;99.90
30893;DHT22;17595;50.884;4.346;2024-03-08T07:20:15;6.80;99.90
30893;DHT22;17595;50.884;4.346;2024-03-08T07:22:44;6.90;99.90
30893;DHT22;17595;50.884;4.346;2024-03-08T07:25:14;6.90;99.90
30893;DHT22;17595;50.884;4.346;2024-03-08T07:27:50;6.90;99.90
30893;DHT22;17595;50.884;4.346;2024-03-08T07:30:17;6.90;99.90
30893;DHT22;17595;50.884;4.346;2024-03-08T07:33:03;6.90;99.90
30893;DHT22;17595;50.884;4.346;2024-03-08T07:35:29;7.00;99.90
30893;DHT22;17595;50.884;4.346;2024-03-08T07:37:56;7.00;99.90
30893;DHT22;17595;50.884;4.346;2024-03-08T07:40:22;7.10;99.90
30893;DHT22;17595;50.884;4.346;2024-03-08T07:42:52;7.00;99.90
30893;DHT22;17595;50.884;4.346;2024-03-08T07:45:18;6.90;99.90
30893;DHT22;17595;50.884;4.346;2024-03-08T07:47:43;7.00;99.90
30893;DHT22;17595;50.884;4.346;2024-03-08T07:50:09;7.10;99.90
30893;DHT22;17595;50.884;4.346;2024-03-08T07:52:35;7.20;99.90
30893;DHT22;17595;50.884;4.346;2024-03-08T07:55:04;7.20;99.90
30893;DHT22;17595;50.884;4.346;2024-03-08T07:57:31;7.20;99.90
30893;DHT22;17595;50.884;4.346;2024-03-08T07:59:57;7.20;99.90
30893;DHT22;17595;50.884;4.346;2024-03-08T08:02:23;7.20;99.90
30893;DHT22;17595;50.884;4.346;2024-03-08T08:04:49;7.30;99.90
30893;DHT22;17595;50.884;4.346;2024-03-08T08:07:14;7.40;99.90
30893;DHT22;17595;50.884;4.346;2024-03-08T08:09:41;7.50;99.90
30893;DHT22;17595;50.884;4.346;2024-03-08T08:12:08;7.60;99.90
30893;DHT22;17595;50.884;4.346;2024-03-08T08:14:40;7.60;99.90
30893;DHT22;17595;50.884;4.346;2024-03-08T08:17:06;7.60;99.90
30893;DHT22;17595;50.884;4.346;2024-03-08T08:19:34;7.70;99.90
30893;DHT22;17595;50.884;4.346;2024-03-08T08:22:01;7.70;99.90
30893;DHT22;17595;50.884;4.346;2024-03-08T08:24:28;7.80;99.90
30893;DHT22;17595;50.884;4.346;2024-03-08T08:26:53;7.70;99.90
30893;DHT22;17595;50.884;4.346;2024-03-08T08:29:19;7.80;99.90
30893;DHT22;17595;50.884;4.346;2024-03-08T08:31:46;7.90;99.90
30893;DHT22;17595;50.884;4.346;2024-03-08T08:34:12;7.90;99.90
30893;DHT22;17595;50.884;4.346;2024-03-08T08:36:39;7.90;99.90
30893;DHT22;17595;50.884;4.346;2024-03-08T08:39:06;7.90;99.90
30893;DHT22;17595;50.884;4.346;2024-03-08T08:41:37;7.90;99.90
30893;DHT22;17595;50.884;4.346;2024-03-08T08:44:03;8.00;99.90
30893;DHT22;17595;50.884;4.346;2024-03-08T08:46:29;8.00;99.90
30893;DHT22;17595;50.884;4.346;2024-03-08T08:48:55;8.10;99.90
30893;DHT22;17595;50.884;4.346;2024-03-08T08:51:20;8.10;99.90
30893;DHT22;17595;50.884;4.346;2024-03-08T08:53:46;8.20;99.90
30893;DHT22;17595;50.884;4.346;2024-03-08T08:56:13;8.30;99.90
30893;DHT22;17595;50.884;4.346;2024-03-08T08:58:40;8.30;99.90
30893;DHT22;17595;50.884;4.346;2024-03-08T09:01:06;8.30;99.90
30893;DHT22;17595;50.884;4.346;2024-03-08T09:03:33;8.50;99.90
30893;DHT22;17595;50.884;4.346;2024-03-08T09:06:01;8.50;99.90
30893;DHT22;17595;50.884;4.346;2024-03-08T09:08:28;8.50;99.90
30893;DHT22;17595;50.884;4.346;2024-03-08T09:10:54;8.50;99.90
30893;DHT22;17595;50.884;4.346;2024-03-08T09:13:19;8.50;99.90
30893;DHT22;17595;50.884;4.346;2024-03-08T09:15:45;8.40;99.90
30893;DHT22;17595;50.884;4.346;2024-03-08T09:18:11;8.60;99.90
30893;DHT22;17595;50.884;4.346;2024-03-08T09:20:37;8.70;99.90
30893;DHT22;17595;50.884;4.346;2024-03-08T09:23:03;8.80;99.90
30893;DHT22;17595;50.884;4.346;2024-03-08T09:25:29;8.70;99.90
30893;DHT22;17595;50.884;4.346;2024-03-08T09:27:55;8.70;99.90
30893;DHT22;17595;50.884;4.346;2024-03-08T09:30:21;8.80;99.90
30893;DHT22;17595;50.884;4.346;2024-03-08T09:32:47;8.80;99.90
30893;DHT22;17595;50.884;4.346;2024-03-08T09:35:13;8.90;99.90
30893;DHT22;17595;50.884;4.346;2024-03-08T09:37:39;9.00;99.90
30893;DHT22;17595;50.884;4.346;2024-03-08T09:40:05;9.00;99.90
30893;DHT22;17595;50.884;4.346;2024-03-08T09:42:35;8.90;99.90
30893;DHT22;17595;50.884;4.346;2024-03-08T09:45:09;9.00;99.90
30893;DHT22;17595;50.884;4.346;2024-03-08T09:47:44;9.20;99.90
30893;DHT22;17595;50.884;4.346;2024-03-08T09:50:11;9.30;99.90
30893;DHT22;17595;50.884;4.346;2024-03-08T09:52:47;9.30;99.90
30893;DHT22;17595;50.884;4.346;2024-03-08T09:55:13;9.30;99.90
30893;DHT22;17595;50.884;4.346;2024-03-08T09:57:43;9.40;99.90
30893;DHT22;17595;50.884;4.346;2024-03-08T10:00:31;9.50;99.90
30893;DHT22;17595;50.884;4.346;2024-03-08T10:03:01;9.40;99.90
30893;DHT22;17595;50.884;4.346;2024-03-08T10:05:27;9.40;99.90
30893;DHT22;17595;50.884;4.346;2024-03-08T10:07:52;9.40;99.90
30893;DHT22;17595;50.884;4.346;2024-03-08T10:10:18;9.50;99.90
30893;DHT22;17595;50.884;4.346;2024-03-08T10:12:44;9.50;99.90
30893;DHT22;17595;50.884;4.346;2024-03-08T10:15:11;9.50;99.90
30893;DHT22;17595;50.884;4.346;2024-03-08T10:17:38;9.60;99.90
30893;DHT22;17595;50.884;4.346;2024-03-08T10:20:14;9.60;99.90
30893;DHT22;17595;50.884;4.346;2024-03-08T10:22:41;9.70;99.90
30893;DHT22;17595;50.884;4.346;2024-03-08T10:25:13;9.80;99.90
30893;DHT22;17595;50.884;4.346;2024-03-08T10:27:39;9.80;99.90
30893;DHT22;17595;50.884;4.346;2024-03-08T10:30:14;9.80;99.90
30893;DHT22;17595;50.884;4.346;2024-03-08T10:32:41;9.80;99.90
30893;DHT22;17595;50.884;4.346;2024-03-08T10:35:09;9.80;99.90
30893;DHT22;17595;50.884;4.346;2024-03-08T10:37:54;9.80;99.90
30893;DHT22;17595;50.884;4.346;2024-03-08T10:40:25;9.80;99.90
30893;DHT22;17595;50.884;4.346;2024-03-08T10:42:59;9.90;99.90
30893;DHT22;17595;50.884;4.346;2024-03-08T10:45:38;9.80;99.90
30893;DHT22;17595;50.884;4.346;2024-03-08T10:50:53;10.00;99.90
30893;DHT22;17595;50.884;4.346;2024-03-08T10:53:19;9.90;99.90
30893;DHT22;17595;50.884;4.346;2024-03-08T10:55:49;10.00;99.90
30893;DHT22;17595;50.884;4.346;2024-03-08T10:58:22;10.10;99.90
30893;DHT22;17595;50.884;4.346;2024-03-08T11:00:56;10.00;99.90
30893;DHT22;17595;50.884;4.346;2024-03-08T11:08:57;10.30;99.90
30893;DHT22;17595;50.884;4.346;2024-03-08T11:11:33;10.30;99.90
30893;DHT22;17595;50.884;4.346;2024-03-08T11:14:02;10.30;99.90
30893;DHT22;17595;50.884;4.346;2024-03-08T11:19:01;10.40;99.90
30893;DHT22;17595;50.884;4.346;2024-03-08T11:21:30;10.50;99.90
30893;DHT22;17595;50.884;4.346;2024-03-08T11:24:06;10.50;99.90
30893;DHT22;17595;50.884;4.346;2024-03-08T11:26:33;10.60;99.90
30893;DHT22;17595;50.884;4.346;2024-03-08T11:31:52;10.70;99.90
30893;DHT22;17595;50.884;4.346;2024-03-08T11:34:29;10.70;99.90
30893;DHT22;17595;50.884;4.346;2024-03-08T11:36:56;10.80;99.90
30893;DHT22;17595;50.884;4.346;2024-03-08T11:39:22;10.90;99.90
30893;DHT22;17595;50.884;4.346;2024-03-08T11:41:49;10.90;99.90
30893;DHT22;17595;50.884;4.346;2024-03-08T11:44:15;11.10;99.90
30893;DHT22;17595;50.884;4.346;2024-03-08T11:46:42;11.10;99.90
30893;DHT22;17595;50.884;4.346;2024-03-08T11:49:12;11.10;99.90
30893;DHT22;17595;50.884;4.346;2024-03-08T11:51:38;11.20;99.90
30893;DHT22;17595;50.884;4.346;2024-03-08T11:54:04;11.20;99.90
30893;DHT22;17595;50.884;4.346;2024-03-08T11:56:31;11.00;99.90
30893;DHT22;17595;50.884;4.346;2024-03-08T11:58:57;10.90;99.90
30893;DHT22;17595;50.884;4.346;2024-03-08T12:01:24;11.00;99.90
30893;DHT22;17595;50.884;4.346;2024-03-08T12:03:54;11.00;99.90
30893;DHT22;17595;50.884;4.346;2024-03-08T12:06:20;11.00;99.90
30893;DHT22;17595;50.884;4.346;2024-03-08T12:08:46;11.00;99.90
30893;DHT22;17595;50.884;4.346;2024-03-08T12:11:17;11.20;99.90
30893;DHT22;17595;50.884;4.346;2024-03-08T12:13:48;11.20;99.90
30893;DHT22;17595;50.884;4.346;2024-03-08T12:16:17;11.30;99.90
30893;DHT22;17595;50.884;4.346;2024-03-08T12:18:47;11.40;99.90
30893;DHT22;17595;50.884;4.346;2024-03-08T12:21:14;11.40;99.90
30893;DHT22;17595;50.884;4.346;2024-03-08T12:23:44;11.40;99.90
30893;DHT22;17595;50.884;4.346;2024-03-08T12:26:16;11.60;99.90
30893;DHT22;17595;50.884;4.346;2024-03-08T12:28:43;11.50;99.90
30893;DHT22;17595;50.884;4.346;2024-03-08T12:31:12;11.40;99.90
30893;DHT22;17595;50.884;4.346;2024-03-08T12:33:50;11.30;99.90
30893;DHT22;17595;50.884;4.346;2024-03-08T12:36:16;11.40;99.90
30893;DHT22;17595;50.884;4.346;2024-03-08T12:38:46;11.50;99.90
30893;DHT22;17595;50.884;4.346;2024-03-08T12:41:18;11.60;99.90
30893;DHT22;17595;50.884;4.346;2024-03-08T12:43:45;11.60;99.90
30893;DHT22;17595;50.884;4.346;2024-03-08T12:46:17;11.60;99.90
30893;DHT22;17595;50.884;4.346;2024-03-08T12:48:45;11.70;99.90
30893;DHT22;17595;50.884;4.346;2024-03-08T12:51:17;11.60;99.90
30893;DHT22;17595;50.884;4.346;2024-03-08T12:53:46;11.70;99.90
30893;DHT22;17595;50.884;4.346;2024-03-08T12:56:14;11.60;99.90
30893;DHT22;17595;50.884;4.346;2024-03-08T12:58:41;11.70;99.90
30893;DHT22;17595;50.884;4.346;2024-03-08T13:01:08;11.80;99.90
30893;DHT22;17595;50.884;4.346;2024-03-08T13:03:34;11.90;99.90
30893;DHT22;17595;50.884;4.346;2024-03-08T13:06:04;11.90;99.90
30893;DHT22;17595;50.884;4.346;2024-03-08T13:08:36;11.90;99.90
30893;DHT22;17595;50.884;4.346;2024-03-08T13:11:05;12.00;99.90
30893;DHT22;17595;50.884;4.346;2024-03-08T13:13:30;12.00;99.90
30893;DHT22;17595;50.884;4.346;2024-03-08T13:15:56;11.80;99.90
30893;DHT22;17595;50.884;4.346;2024-03-08T13:18:22;12.00;99.90
30893;DHT22;17595;50.884;4.346;2024-03-08T13:20:48;12.00;99.90
30893;DHT22;17595;50.884;4.346;2024-03-08T13:23:17;12.20;99.90
30893;DHT22;17595;50.884;4.346;2024-03-08T13:25:43;12.30;99.90
30893;DHT22;17595;50.884;4.346;2024-03-08T13:28:09;12.30;99.90
30893;DHT22;17595;50.884;4.346;2024-03-08T13:30:36;12.30;99.90
30893;DHT22;17595;50.884;4.346;2024-03-08T13:33:02;12.40;99.90
30893;DHT22;17595;50.884;4.346;2024-03-08T13:35:30;12.40;99.90
30893;DHT22;17595;50.884;4.346;2024-03-08T13:37:56;12.50;99.90
30893;DHT22;17595;50.884;4.346;2024-03-08T13:40:22;12.50;99.90
30893;DHT22;17595;50.884;4.346;2024-03-08T13:42:48;12.60;99.90
30893;DHT22;17595;50.884;4.346;2024-03-08T13:45:16;12.50;99.90
30893;DHT22;17595;50.884;4.346;2024-03-08T13:47:50;12.50;99.90
30893;DHT22;17595;50.884;4.346;2024-03-08T13:50:18;12.60;99.90
30893;DHT22;17595;50.884;4.346;2024-03-08T13:52:50;12.50;99.90
30893;DHT22;17595;50.884;4.346;2024-03-08T13:55:20;12.50;99.90
30893;DHT22;17595;50.884;4.346;2024-03-08T13:57:48;12.50;99.90
30893;DHT22;17595;50.884;4.346;2024-03-08T14:00:14;12.70;99.90
30893;DHT22;17595;50.884;4.346;2024-03-08T14:02:40;12.70;99.90
30893;DHT22;17595;50.884;4.346;2024-03-08T14:05:07;12.80;99.90
30893;DHT22;17595;50.884;4.346;2024-03-08T14:07:37;12.60;99.90
30893;DHT22;17595;50.884;4.346;2024-03-08T14:10:03;12.60;99.90
30893;DHT22;17595;50.884;4.346;2024-03-08T14:12:28;12.60;99.90
30893;DHT22;17595;50.884;4.346;2024-03-08T14:14:55;12.60;99.90
30893;DHT22;17595;50.884;4.346;2024-03-08T14:17:25;12.70;99.90
30893;DHT22;17595;50.884;4.346;2024-03-08T14:19:52;12.80;99.90
30893;DHT22;17595;50.884;4.346;2024-03-08T14:22:18;12.90;99.90
30893;DHT22;17595;50.884;4.346;2024-03-08T14:24:44;12.90;99.90
30893;DHT22;17595;50.884;4.346;2024-03-08T14:27:10;12.80;99.90
30893;DHT22;17595;50.884;4.346;2024-03-08T14:29:37;12.90;99.90
30893;DHT22;17595;50.884;4.346;2024-03-08T14:32:05;13.10;99.90
30893;DHT22;17595;50.884;4.346;2024-03-08T14:34:32;13.10;99.90
30893;DHT22;17595;50.884;4.346;2024-03-08T14:37:00;13.10;99.90
30893;DHT22;17595;50.884;4.346;2024-03-08T14:39:26;13.00;99.90
30893;DHT22;17595;50.884;4.346;2024-03-08T14:41:55;13.00;99.90
30893;DHT22;17595;50.884;4.346;2024-03-08T14:44:21;13.10;99.90
30893;DHT22;17595;50.884;4.346;2024-03-08T14:46:58;13.00;99.90
30893;DHT22;17595;50.884;4.346;2024-03-08T14:49:24;13.00;99.90
30893;DHT22;17595;50.884;4.346;2024-03-08T14:51:54;13.00;99.90
30893;DHT22;17595;50.884;4.346;2024-03-08T14:54:20;13.00;99.90
30893;DHT22;17595;50.884;4.346;2024-03-08T14:56:48;13.00;99.90
30893;DHT22;17595;50.884;4.346;2024-03-08T14:59:16;13.10;99.90
30893;DHT22;17595;50.884;4.346;2024-03-08T15:01:42;13.20;99.90
30893;DHT22;17595;50.884;4.346;2024-03-08T15:04:09;13.10;99.90
30893;DHT22;17595;50.884;4.346;2024-03-08T15:06:38;13.20;99.90
30893;DHT22;17595;50.884;4.346;2024-03-08T15:09:05;13.10;99.90
30893;DHT22;17595;50.884;4.346;2024-03-08T15:11:57;13.10;99.90
30893;DHT22;17595;50.884;4.346;2024-03-08T15:14:23;13.20;99.90
30893;DHT22;17595;50.884;4.346;2024-03-08T15:16:50;13.20;99.90
30893;DHT22;17595;50.884;4.346;2024-03-08T15:19:16;13.20;99.90
30893;DHT22;17595;50.884;4.346;2024-03-08T15:21:43;13.30;99.90
30893;DHT22;17595;50.884;4.346;2024-03-08T15:24:11;13.20;99.90
30893;DHT22;17595;50.884;4.346;2024-03-08T15:26:43;13.10;99.90
30893;DHT22;17595;50.884;4.346;2024-03-08T15:29:09;13.20;99.90
30893;DHT22;17595;50.884;4.346;2024-03-08T15:31:38;13.10;99.90
30893;DHT22;17595;50.884;4.346;2024-03-08T15:34:06;13.10;99.90
30893;DHT22;17595;50.884;4.346;2024-03-08T15:36:32;13.10;99.90
30893;DHT22;17595;50.884;4.346;2024-03-08T15:38:59;13.10;99.90
30893;DHT22;17595;50.884;4.346;2024-03-08T15:41:26;13.30;99.90
30893;DHT22;17595;50.884;4.346;2024-03-08T15:43:52;13.30;99.90
30893;DHT22;17595;50.884;4.346;2024-03-08T15:46:18;13.30;99.90
30893;DHT22;17595;50.884;4.346;2024-03-08T15:48:48;13.40;99.90
30893;DHT22;17595;50.884;4.346;2024-03-08T15:51:14;13.20;99.90
30893;DHT22;17595;50.884;4.346;2024-03-08T15:53:43;13.20;99.90
30893;DHT22;17595;50.884;4.346;2024-03-08T15:56:10;13.30;99.90
30893;DHT22;17595;50.884;4.346;2024-03-08T15:58:36;13.30;99.90